Terminal Aerodrome Forecast
Issued by NWS

Home | Current Version | Previous Version | Text Only | Print | Product List | Glossary On
Versions: 1 2 3 4 5 6 7 8 9 10 11 12
000
FTUS45 KREV 292300
TAFMMH
TAF
KMMH 292325Z 3000/3024 30012G22KT P6SM SCT140 BKN180
     FM300400 VRB05KT P6SM BKN150
     FM301500 12006KT P6SM SCT250
     FM302000 28019G30KT P6SM SCT250
      AMD NOT SKED 3002/3014=

USA.gov is the U.S. government's official web portal to all federal, state and local government web resources and services.